Time;durP1;ratioP1;P1;durP2;ratioP2;P2;SDS_P1;SDS_P2;PMS_P1;PMS_P2;Temp;Humidity;BMP_temperature;BMP_pressure;BME280_temperature;BME280_humidity;BME280_pressure;Samples;Min_cycle;Max_cycle;Signal;HPM_P1;HPM_P2
2022/06/19 00:02:26;;;;;;;2.12;1.98;;;;;;;19.02;45.96;99868.47;1730168;82;21546;-58
2022/06/19 00:04:55;;;;;;;3.47;2.20;;;;;;;19.00;46.60;99871.24;1686949;83;21546;-58
2022/06/19 00:10:10;;;;;;;1.72;1.62;;;;;;;18.90;47.72;99872.90;1847631;75;23433;-57
2022/06/19 00:12:36;;;;;;;1.90;1.80;;;;;;;18.83;47.19;99871.16;1787936;77;21525;-56
2022/06/19 00:15:04;;;;;;;2.40;2.20;;;;;;;18.85;46.89;99878.59;1801333;77;21816;-56
2022/06/19 00:17:32;;;;;;;4.17;2.30;;;;;;;18.87;46.61;99879.77;1808624;77;21367;-56
2022/06/19 00:19:59;;;;;;;3.05;2.75;;;;;;;18.88;46.61;99878.83;1774253;79;21643;-56
2022/06/19 00:22:25;;;;;;;3.70;2.45;;;;;;;18.88;46.62;99877.50;1753210;80;21544;-56
2022/06/19 00:24:53;;;;;;;2.90;2.37;;;;;;;18.88;46.94;99877.50;1768035;79;21047;-56
2022/06/19 00:27:20;;;;;;;3.05;2.40;;;;;;;18.85;46.96;99873.72;1771101;79;21983;-56
2022/06/19 00:29:47;;;;;;;2.47;2.27;;;;;;;18.83;47.44;99883.14;1760015;79;21631;-56
2022/06/19 00:32:13;;;;;;;2.50;1.92;;;;;;;18.81;47.56;99882.90;1764312;79;21567;-58
2022/06/19 00:34:40;;;;;;;2.40;2.20;;;;;;;18.74;47.88;99871.83;1764843;78;21505;-56
2022/06/19 00:37:08;;;;;;;2.22;2.12;;;;;;;18.73;47.98;99878.11;1766490;78;21528;-57
2022/06/19 00:39:42;;;;;;;2.00;1.90;;;;;;;18.71;48.03;99875.20;1763626;79;21868;-57
2022/06/19 00:42:12;;;;;;;2.08;1.87;;;;;;;18.67;48.34;99868.75;1760835;78;21430;-57
2022/06/19 00:44:39;;;;;;;2.30;2.10;;;;;;;18.66;48.18;99864.86;1772710;79;21532;-57
2022/06/19 00:47:22;;;;;;;5.42;2.30;;;;;;;18.66;48.50;99863.53;1772674;79;21063;-58
2022/06/19 00:49:59;;;;;;;2.98;2.00;;;;;;;18.63;48.74;99872.60;1770182;79;21525;-57
2022/06/19 00:52:38;;;;;;;3.35;2.20;;;;;;;18.42;48.83;99848.39;1746394;79;21394;-58
2022/06/19 00:55:16;;;;;;;2.65;2.30;;;;;;;18.52;49.02;99875.20;1776704;79;21590;-58
2022/06/19 00:57:47;;;;;;;2.67;1.75;;;;;;;18.49;49.50;99875.41;1770440;79;21442;-60
2022/06/19 01:00:23;;;;;;;2.10;2.00;;;;;;;18.46;49.52;99871.66;1771017;79;21449;-57
2022/06/19 01:02:47;;;;;;;2.35;2.17;;;;;;;18.47;49.17;99874.17;1768150;79;21485;-57
2022/06/19 01:05:15;;;;;;;5.25;2.20;;;;;;;18.50;49.19;99877.12;1761876;80;21892;-57
2022/06/19 01:07:43;;;;;;;2.10;2.00;;;;;;;18.50;49.31;99879.78;1773545;79;21372;-58
2022/06/19 01:10:15;;;;;;;5.40;2.30;;;;;;;18.51;49.31;99877.96;1775509;79;21433;-57
2022/06/19 01:12:45;;;;;;;4.22;2.20;;;;;;;18.50;49.44;99871.80;1772712;79;21417;-57
2022/06/19 01:15:15;;;;;;;2.35;2.17;;;;;;;18.49;49.60;99882.06;1777302;78;21587;-57
2022/06/19 01:17:46;;;;;;;5.53;2.15;;;;;;;18.44;49.54;99875.75;1770205;79;21402;-59
2022/06/19 01:20:14;;;;;;;2.95;1.98;;;;;;;18.44;49.86;99872.21;1761579;79;21631;-58
2022/06/19 01:23:04;;;;;;;;;;;;;;;18.43;49.92;99871.37;1779931;79;21438;-57
2022/06/19 01:25:36;;;;;;;2.83;2.10;;;;;;;18.44;49.88;99874.42;1749290;80;20420;-59
2022/06/19 01:31:04;;;;;;;3.08;2.10;;;;;;;18.50;49.75;99871.80;1747162;80;21816;-58
2022/06/19 01:33:39;;;;;;;2.98;2.45;;;;;;;18.49;49.65;99872.25;1687046;80;21466;-59
2022/06/19 01:36:08;;;;;;;1.98;1.87;;;;;;;18.49;49.97;99872.73;1749683;79;21485;-58
2022/06/19 01:38:35;;;;;;;3.10;2.00;;;;;;;18.48;49.94;99869.23;1774344;79;21475;-58
2022/06/19 01:41:06;;;;;;;3.33;2.25;;;;;;;18.47;50.15;99872.84;1760688;79;21046;-59
2022/06/19 01:43:35;;;;;;;4.22;2.00;;;;;;;18.51;50.27;99868.16;1765438;79;21799;-59
2022/06/19 01:46:02;;;;;;;1.87;1.70;;;;;;;18.52;50.57;99869.03;1766048;79;21531;-58
2022/06/19 01:48:30;;;;;;;2.60;2.00;;;;;;;18.50;50.64;99870.46;1756132;79;21017;-58
2022/06/19 01:50:57;;;;;;;;;;;;;;;18.48;50.80;99875.05;1766345;80;21496;-58
2022/06/19 01:53:41;;;;;;;2.02;1.90;;;;;;;18.47;51.29;99874.67;1769169;79;20440;-59
2022/06/19 01:56:10;;;;;;;2.22;2.00;;;;;;;18.40;51.10;99880.05;1766939;79;21773;-58
2022/06/19 01:58:39;;;;;;;3.20;1.95;;;;;;;18.44;51.06;99878.87;1759347;79;21018;-58
2022/06/19 02:01:07;;;;;;;3.42;2.08;;;;;;;18.46;51.19;99876.48;1770210;80;21592;-58
2022/06/19 02:03:55;;;;;;;3.52;2.37;;;;;;;18.43;51.72;99874.52;1765430;79;21540;-58
2022/06/19 02:06:26;;;;;;;3.50;2.20;;;;;;;18.41;51.79;99877.28;1767817;79;21439;-58
2022/06/19 02:08:52;;;;;;;2.37;2.17;;;;;;;18.44;51.46;99876.20;1758554;79;22196;-58
2022/06/19 02:11:19;;;;;;;2.40;2.20;;;;;;;18.47;51.52;99877.33;1765241;80;21477;-58
2022/06/19 02:13:46;;;;;;;2.98;2.27;;;;;;;18.51;51.56;99877.47;1766220;79;21029;-58
2022/06/19 02:16:16;;;;;;;2.50;2.30;;;;;;;18.53;51.67;99878.21;1761250;79;21467;-58
2022/06/19 02:18:46;;;;;;;7.87;2.77;;;;;;;18.58;52.00;99879.23;1763530;79;20978;-58
2022/06/19 02:21:38;;;;;;;4.25;2.33;;;;;;;18.61;51.67;99878.98;1761158;80;21810;-58
2022/06/19 02:24:06;;;;;;;2.65;1.90;;;;;;;18.66;51.60;99883.50;1747220;80;21541;-58
2022/06/19 02:26:35;;;;;;;2.22;2.02;;;;;;;18.70;51.44;99890.79;1761592;79;21614;-58
2022/06/19 02:29:03;;;;;;;2.83;2.12;;;;;;;18.72;51.40;99887.05;1763491;79;21557;-58
2022/06/19 02:31:31;;;;;;;1.90;1.80;;;;;;;18.77;51.68;99892.89;1733864;80;21600;-58
2022/06/19 02:33:59;;;;;;;;;;;;;;;18.79;51.44;99892.78;1760843;79;21795;-58
2022/06/19 02:36:42;;;;;;;3.00;2.02;;;;;;;18.82;51.58;99896.11;1763116;80;20434;-58
2022/06/19 02:39:36;;;;;;;1.92;1.80;;;;;;;18.85;51.28;99895.03;1762170;79;21450;-58
2022/06/19 02:42:22;;;;;;;3.65;2.10;;;;;;;18.86;51.05;99895.41;1753459;79;21576;-58
2022/06/19 02:45:01;;;;;;;2.08;1.95;;;;;;;18.90;50.91;99897.37;1745544;79;21611;-59
2022/06/19 02:47:32;;;;;;;1.85;1.75;;;;;;;18.91;50.76;99903.92;1759064;79;21856;-59
2022/06/19 02:50:00;;;;;;;1.87;1.77;;;;;;;18.91;50.91;99901.26;1752357;79;21564;-58
2022/06/19 02:52:28;;;;;;;2.95;2.00;;;;;;;18.91;51.00;99902.59;1756990;79;21518;-57
2022/06/19 02:54:56;;;;;;;2.25;1.80;;;;;;;18.92;51.16;99904.77;1763366;79;21426;-57
2022/06/19 02:57:23;;;;;;;2.05;1.95;;;;;;;18.90;51.72;99906.20;1754473;80;21431;-58
2022/06/19 02:59:50;;;;;;;3.30;1.92;;;;;;;18.88;51.64;99900.14;1758580;79;21526;-57
2022/06/19 03:02:18;;;;;;;2.12;1.90;;;;;;;18.88;51.40;99898.81;1756743;80;21541;-57
2022/06/19 03:04:52;;;;;;;2.62;2.00;;;;;;;18.90;51.36;99902.70;1759755;79;21625;-58
2022/06/19 03:07:19;;;;;;;2.42;2.20;;;;;;;18.91;51.37;99898.59;1755767;79;21470;-57
2022/06/19 03:09:45;;;;;;;2.50;2.30;;;;;;;18.94;51.27;99892.18;1770700;79;21605;-57
2022/06/19 03:12:13;;;;;;;2.40;1.92;;;;;;;18.96;51.19;99895.09;1758846;79;21800;-56
2022/06/19 03:14:44;;;;;;;2.87;2.10;;;;;;;18.98;51.21;99899.81;1767340;79;21541;-57
2022/06/19 03:17:15;;;;;;;2.47;2.27;;;;;;;19.01;51.21;99894.27;1756314;79;21442;-57
2022/06/19 03:19:42;;;;;;;4.05;2.08;;;;;;;19.02;51.21;99890.66;1762589;79;21414;-57
2022/06/19 03:22:11;;;;;;;4.75;2.50;;;;;;;19.03;51.21;99888.34;1765270;79;21538;-57
2022/06/19 03:24:39;;;;;;;2.80;2.20;;;;;;;19.02;51.27;99878.67;1768854;79;22059;-57
2022/06/19 03:27:06;;;;;;;2.45;2.30;;;;;;;19.06;51.56;99881.47;1748604;80;21556;-57
2022/06/19 03:29:35;;;;;;;2.42;2.22;;;;;;;19.08;51.51;99876.03;1764490;80;21584;-57
2022/06/19 03:32:01;;;;;;;2.45;2.25;;;;;;;19.14;51.67;99878.23;1767277;79;21683;-57
2022/06/19 03:34:28;;;;;;;2.17;1.98;;;;;;;19.20;51.90;99874.25;1760214;79;21481;-57
2022/06/19 03:36:56;;;;;;;2.75;2.02;;;;;;;19.24;52.21;99875.23;1761848;79;21872;-57
2022/06/19 03:39:22;;;;;;;2.40;2.20;;;;;;;19.33;52.11;99870.19;1750307;79;21411;-57
2022/06/19 03:41:50;;;;;;;3.17;2.10;;;;;;;19.38;52.26;99876.87;1753934;79;21486;-57
2022/06/19 03:44:16;;;;;;;2.95;1.75;;;;;;;19.48;52.39;99881.02;1760975;79;21596;-58
2022/06/19 03:46:44;;;;;;;2.98;2.30;;;;;;;19.55;52.50;99879.59;1762186;79;21921;-58
2022/06/19 03:49:10;;;;;;;6.72;2.33;;;;;;;19.65;52.09;99872.56;1763562;79;21766;-57
2022/06/19 03:51:39;;;;;;;2.45;2.25;;;;;;;19.77;52.08;99873.45;1749901;80;21030;-57
2022/06/19 03:54:07;;;;;;;2.92;2.17;;;;;;;19.84;52.04;99872.02;1763421;79;21128;-57
2022/06/19 03:56:36;;;;;;;2.02;1.92;;;;;;;19.97;52.13;99871.91;1754147;79;21442;-57
2022/06/19 03:59:02;;;;;;;;;;;;;;;20.07;51.98;99876.53;1762586;79;21515;-57
2022/06/19 04:01:35;;;;;;;10.50;2.40;;;;;;;20.15;51.91;99874.94;1757583;79;21790;-57
2022/06/19 04:04:03;;;;;;;2.52;2.30;;;;;;;20.20;51.71;99878.09;1749553;79;21545;-57
2022/06/19 04:06:35;;;;;;;5.78;2.10;;;;;;;20.28;51.75;99874.81;1765761;80;20958;-59
2022/06/19 04:09:04;;;;;;;2.77;2.12;;;;;;;20.37;51.84;99874.08;1758262;79;21576;-57
2022/06/19 04:11:31;;;;;;;2.70;2.15;;;;;;;20.47;52.06;99868.84;1761237;79;21537;-57
2022/06/19 04:13:58;;;;;;;2.17;2.08;;;;;;;20.56;52.15;99864.09;1770511;80;21792;-58
2022/06/19 04:16:28;;;;;;;2.45;2.25;;;;;;;20.66;51.98;99872.73;1767304;79;21458;-57
2022/06/19 04:18:58;;;;;;;2.52;2.27;;;;;;;20.74;52.07;99872.98;1772710;79;21565;-57
2022/06/19 04:21:27;;;;;;;2.58;2.33;;;;;;;20.83;52.12;99875.37;1772195;80;21405;-58
2022/06/19 04:23:57;;;;;;;4.05;2.25;;;;;;;20.90;51.85;99879.23;1761445;79;21684;-57
2022/06/19 04:26:26;;;;;;;7.37;2.27;;;;;;;20.96;51.80;99879.59;1761936;79;21791;-57
2022/06/19 04:28:52;;;;;;;2.20;2.00;;;;;;;21.06;52.12;99877.01;1779649;79;21434;-57
2022/06/19 04:31:19;;;;;;;4.40;2.40;;;;;;;21.20;51.77;99879.36;1773051;80;21551;-57
2022/06/19 04:33:47;;;;;;;2.10;2.00;;;;;;;21.30;51.08;99878.09;1765744;79;21532;-57
2022/06/19 04:36:17;;;;;;;4.55;1.92;;;;;;;21.38;50.92;99875.64;1773190;79;21445;-57
2022/06/19 04:38:46;;;;;;;2.98;2.25;;;;;;;21.48;50.60;99876.23;1770356;80;21732;-58
2022/06/19 04:41:19;;;;;;;3.80;1.90;;;;;;;21.58;50.59;99877.14;1764337;78;21533;-58
2022/06/19 04:43:46;;;;;;;2.47;2.10;;;;;;;21.68;50.55;99870.51;1771622;79;21482;-58
2022/06/19 04:46:13;;;;;;;3.63;2.13;;;;;;;21.78;50.00;99880.30;1776935;79;21536;-58
2022/06/19 04:48:40;;;;;;;3.25;2.05;;;;;;;21.97;49.91;99874.20;1775889;79;21671;-58
2022/06/19 04:51:07;;;;;;;1.80;1.70;;;;;;;21.97;49.91;99874.20;1763489;79;21788;-57
2022/06/19 04:53:35;;;;;;;5.37;1.90;;;;;;;22.09;49.45;99870.94;1772481;79;21426;-58
2022/06/19 04:56:01;;;;;;;2.40;2.20;;;;;;;22.22;49.57;99872.55;1780726;79;21640;-58
2022/06/19 04:58:29;;;;;;;4.42;2.17;;;;;;;22.32;49.50;99869.44;1773394;79;20957;-58
2022/06/19 05:00:56;;;;;;;6.40;2.22;;;;;;;22.43;49.13;99872.01;1769098;79;21493;-57
2022/06/19 05:03:23;;;;;;;2.65;2.20;;;;;;;22.52;48.96;99867.17;1780304;80;22020;-58
2022/06/19 05:05:53;;;;;;;2.52;2.22;;;;;;;22.65;48.73;99872.80;1769612;79;21430;-58
2022/06/19 05:08:21;;;;;;;6.62;1.90;;;;;;;22.75;48.01;99870.96;1768855;78;21485;-58
2022/06/19 05:10:48;;;;;;;4.90;1.82;;;;;;;22.86;47.89;99878.87;1773449;79;21545;-58
2022/06/19 05:13:17;;;;;;;2.30;2.10;;;;;;;22.95;47.43;99873.19;1761611;79;21513;-58
2022/06/19 05:15:46;;;;;;;1.77;1.67;;;;;;;23.19;47.00;99876.84;1772711;78;21788;-58
2022/06/19 05:18:13;;;;;;;4.15;2.00;;;;;;;23.19;47.00;99876.84;1773596;80;21636;-58
2022/06/19 05:20:40;;;;;;;2.58;1.67;;;;;;;23.32;46.74;99881.42;1774255;79;21480;-58
2022/06/19 05:23:06;;;;;;;9.45;1.92;;;;;;;23.54;47.00;99879.91;1766212;79;21056;-58
2022/06/19 05:25:33;;;;;;;2.93;1.80;;;;;;;23.54;47.00;99879.91;1757661;79;21428;-58
2022/06/19 05:28:00;;;;;;;2.47;1.93;;;;;;;23.68;46.93;99885.68;1762778;79;22030;-58
2022/06/19 05:30:28;;;;;;;3.95;1.77;;;;;;;23.79;46.13;99879.81;1752597;79;21037;-58
2022/06/19 05:32:56;;;;;;;1.85;1.75;;;;;;;23.90;45.94;99876.95;1752806;79;20994;-58
2022/06/19 05:35:22;;;;;;;5.22;1.95;;;;;;;23.95;45.34;99880.06;1753690;79;21526;-58
2022/06/19 05:37:49;;;;;;;1.70;1.60;;;;;;;24.00;45.39;99881.81;1760586;79;21049;-58
2022/06/19 05:40:16;;;;;;;1.80;1.70;;;;;;;24.08;45.02;99887.80;1742641;80;21813;-58
2022/06/19 05:42:47;;;;;;;2.00;1.80;;;;;;;24.14;44.65;99891.73;1758406;79;21645;-58
2022/06/19 05:45:14;;;;;;;2.02;1.85;;;;;;;24.20;44.62;99887.11;1757519;79;21648;-58
2022/06/19 05:47:41;;;;;;;1.92;1.67;;;;;;;24.27;44.16;99887.70;1764290;79;21451;-58
2022/06/19 05:50:10;;;;;;;2.22;1.60;;;;;;;24.32;43.74;99888.63;1757264;79;21517;-58
2022/06/19 05:52:36;;;;;;;1.45;1.35;;;;;;;24.46;44.24;99887.27;1754528;79;21858;-58
2022/06/19 05:55:05;;;;;;;1.70;1.60;;;;;;;24.57;43.57;99888.95;1757911;79;21637;-59
2022/06/19 05:57:33;;;;;;;1.87;1.47;;;;;;;24.67;42.85;99891.08;1746105;80;21423;-58
2022/06/19 06:00:01;;;;;;;1.50;1.40;;;;;;;24.79;43.20;99890.36;1749193;79;21526;-59
2022/06/19 06:02:28;;;;;;;3.02;1.80;;;;;;;24.87;42.81;99885.09;1762626;78;21526;-58
2022/06/19 06:04:54;;;;;;;2.55;1.47;;;;;;;24.93;42.54;99889.84;1756343;79;21882;-58
2022/06/19 06:07:23;;;;;;;3.17;1.77;;;;;;;25.02;42.74;99896.17;1755126;79;21020;-58
2022/06/19 06:09:50;;;;;;;4.60;1.30;;;;;;;25.11;42.46;99899.29;1751323;78;21478;-57
2022/06/19 06:12:17;;;;;;;1.87;1.55;;;;;;;25.16;42.34;99896.96;1781933;78;21600;-58
2022/06/19 06:14:45;;;;;;;;;;;;;;;25.25;41.00;99895.23;1780099;78;21615;-58
2022/06/19 06:17:11;;;;;;;1.80;1.05;;;;;;;25.29;40.49;99887.19;1781438;78;21807;-58
2022/06/19 06:19:38;;;;;;;1.10;1.10;;;;;;;25.31;39.93;99889.73;1787283;78;21524;-58
2022/06/19 06:22:05;;;;;;;3.15;1.20;;;;;;;25.32;39.68;99885.55;1753354;79;28727;-58
2022/06/19 06:24:32;;;;;;;2.30;1.40;;;;;;;25.38;39.61;99892.16;1744882;80;21562;-57
2022/06/19 06:27:02;;;;;;;1.32;1.22;;;;;;;25.43;39.59;99901.45;1742853;80;21465;-58
2022/06/19 06:29:29;;;;;;;3.05;1.10;;;;;;;25.51;39.82;99890.42;1744205;80;21781;-57
2022/06/19 06:31:58;;;;;;;4.92;1.60;;;;;;;25.54;40.07;99886.05;1771222;79;21551;-58
2022/06/19 06:34:24;;;;;;;2.15;1.65;;;;;;;25.54;40.07;99886.05;1760902;79;21534;-59
2022/06/19 06:36:51;;;;;;;1.60;1.20;;;;;;;25.64;39.92;99884.13;1771347;78;21580;-57
2022/06/19 06:39:18;;;;;;;1.67;1.00;;;;;;;25.71;39.94;99882.50;1773519;79;21588;-58
2022/06/19 06:41:46;;;;;;;3.60;1.17;;;;;;;25.81;39.96;99881.04;1771064;79;22015;-57
2022/06/19 06:44:13;;;;;;;2.20;1.50;;;;;;;25.88;39.94;99876.72;1772691;80;21446;-58
2022/06/19 06:46:40;;;;;;;;;;;;;;;25.92;39.09;99881.28;1774070;79;21521;-58
2022/06/19 06:49:07;;;;;;;3.47;1.32;;;;;;;25.96;38.55;99881.34;1784420;79;20449;-60
2022/06/19 06:51:34;;;;;;;1.60;1.30;;;;;;;25.99;39.19;99883.22;1769817;79;21438;-59
2022/06/19 06:54:01;;;;;;;2.08;1.25;;;;;;;26.05;38.77;99886.25;1779623;79;21921;-60
2022/06/19 06:56:33;;;;;;;1.43;1.03;;;;;;;26.08;38.47;99873.81;1778095;79;21391;-57
2022/06/19 06:59:00;;;;;;;1.35;1.25;;;;;;;26.11;38.79;99874.34;1772389;79;21519;-58
2022/06/19 07:01:27;;;;;;;1.60;1.30;;;;;;;26.14;38.50;99869.13;1775753;80;21398;-59
2022/06/19 07:03:56;;;;;;;1.30;1.20;;;;;;;26.23;37.89;99874.90;1771978;79;21516;-58
2022/06/19 07:06:25;;;;;;;1.30;1.20;;;;;;;26.32;37.81;99866.36;1778213;79;22008;-59
2022/06/19 07:08:52;;;;;;;2.12;1.22;;;;;;;26.38;37.15;99869.23;1776322;78;21572;-58
2022/06/19 07:11:22;;;;;;;1.02;0.95;;;;;;;26.46;37.85;99864.89;1771789;78;21457;-58
2022/06/19 07:13:50;;;;;;;3.92;1.30;;;;;;;26.56;37.43;99862.88;1757076;79;21470;-59
2022/06/19 07:16:17;;;;;;;2.07;1.07;;;;;;;26.58;36.58;99864.94;1774525;80;21517;-58
2022/06/19 07:18:44;;;;;;;3.00;1.10;;;;;;;26.61;36.20;99867.32;1763236;80;21919;-57
2022/06/19 07:21:11;;;;;;;2.77;1.20;;;;;;;26.65;36.48;99871.88;1775315;80;21465;-57
2022/06/19 07:23:39;;;;;;;1.50;1.10;;;;;;;26.73;36.15;99866.02;1759206;80;21533;-59
2022/06/19 07:26:10;;;;;;;;;;;;;;;26.75;36.23;99857.26;1764789;80;21509;-57
2022/06/19 07:28:38;;;;;;;0.90;0.90;;;;;;;26.80;37.07;99854.05;1759132;79;20487;-57
2022/06/19 07:31:06;;;;;;;;;;;;;;;26.84;35.59;99854.56;1762289;78;21469;-57
2022/06/19 07:33:35;;;;;;;1.25;1.00;;;;;;;26.87;35.36;99848.85;1773903;79;20422;-59
2022/06/19 07:36:07;;;;;;;1.10;1.00;;;;;;;26.88;36.03;99847.83;1758143;79;21508;-57
2022/06/19 07:38:34;;;;;;;1.20;1.07;;;;;;;26.95;36.05;99847.50;1775124;79;22224;-58
2022/06/19 07:41:00;;;;;;;1.85;0.80;;;;;;;27.05;36.33;99839.24;1763216;79;21568;-58
2022/06/19 07:43:29;;;;;;;3.58;1.00;;;;;;;27.05;34.70;99836.06;1759462;79;21499;-57
2022/06/19 07:45:57;;;;;;;1.87;1.00;;;;;;;27.08;34.72;99837.05;1767270;79;21529;-57
2022/06/19 07:51:10;;;;;;;1.17;1.07;;;;;;;27.12;35.15;99827.61;1759199;79;21009;-58
2022/06/19 07:53:37;;;;;;;2.57;1.33;;;;;;;27.20;35.28;99820.05;1765836;79;21328;-58
2022/06/19 07:56:03;;;;;;;3.20;1.15;;;;;;;27.28;35.27;99815.18;1761961;79;21796;-60
2022/06/19 07:58:30;;;;;;;0.90;0.90;;;;;;;27.32;34.73;99820.57;1756525;79;21465;-58
2022/06/19 08:00:57;;;;;;;0.62;0.62;;;;;;;27.40;34.42;99821.91;1767005;79;21510;-58
2022/06/19 08:03:25;;;;;;;1.17;1.07;;;;;;;27.41;32.68;99816.86;1759963;79;21473;-59
2022/06/19 08:05:51;;;;;;;1.37;0.90;;;;;;;27.45;32.46;99812.80;1769417;78;21552;-57
2022/06/19 08:08:22;;;;;;;1.00;0.90;;;;;;;27.42;32.96;99821.22;1769271;79;21849;-57
2022/06/19 08:10:51;;;;;;;1.95;1.10;;;;;;;27.47;33.43;99816.67;1764637;79;21015;-59
2022/06/19 08:13:20;;;;;;;0.80;0.80;;;;;;;27.48;33.68;99807.55;1764212;79;21496;-58
2022/06/19 08:15:52;;;;;;;0.78;0.78;;;;;;;27.58;33.91;99805.52;1762292;79;21491;-57
2022/06/19 08:18:19;;;;;;;1.95;1.20;;;;;;;27.63;34.40;99806.34;1758133;79;21573;-57
2022/06/19 08:20:47;;;;;;;1.30;1.20;;;;;;;27.71;34.71;99808.52;1769994;79;21566;-57
2022/06/19 08:23:14;;;;;;;1.50;1.40;;;;;;;27.79;34.35;99799.55;1767433;79;21435;-57
2022/06/19 08:25:41;;;;;;;3.08;1.22;;;;;;;27.78;34.05;99815.41;1750883;79;21509;-59
2022/06/19 10:19:28;;;;;;;1.95;1.10;;;;;;;29.41;31.30;99734.82;1785025;78;23191;-57
2022/06/19 10:22:30;;;;;;;2.60;0.98;;;;;;;29.81;30.88;99748.42;1686348;80;21642;-57
2022/06/19 10:25:27;;;;;;;2.85;1.00;;;;;;;29.77;30.17;99740.35;1757158;80;21873;-57
2022/06/19 10:28:21;;;;;;;1.80;1.12;;;;;;;29.67;31.17;99739.78;1757048;80;21596;-57
2022/06/19 10:31:15;;;;;;;1.82;0.93;;;;;;;29.76;31.52;99744.11;1761692;80;21518;-57
2022/06/19 10:34:16;;;;;;;3.20;1.10;;;;;;;29.85;30.55;99744.30;1753089;80;21636;-58
2022/06/19 10:37:20;;;;;;;2.05;1.12;;;;;;;29.88;30.69;99736.33;1761672;80;21542;-59
2022/06/19 10:40:16;;;;;;;1.37;1.10;;;;;;;29.85;31.17;99751.08;1764592;80;21934;-57
2022/06/19 10:42:56;;;;;;;1.77;1.00;;;;;;;29.91;31.63;99748.13;1717467;80;21525;-56
2022/06/19 10:45:45;;;;;;;1.02;0.78;;;;;;;30.00;30.49;99740.74;1757275;80;21604;-58
2022/06/19 10:48:18;;;;;;;2.02;1.00;;;;;;;30.00;30.71;99759.19;1703420;82;21783;-58
2022/06/19 10:51:23;;;;;;;2.17;1.10;;;;;;;29.98;30.57;99738.22;1749386;80;21100;-58
2022/06/19 10:54:16;;;;;;;1.47;1.00;;;;;;;29.94;30.47;99744.22;1761978;80;21731;-58
2022/06/19 10:57:07;;;;;;;1.98;1.35;;;;;;;30.05;30.61;99736.95;1758742;80;22129;-56
2022/06/19 10:59:34;;;;;;;2.20;0.93;;;;;;;30.14;30.70;99745.30;1754881;80;20986;-57
2022/06/19 11:05:32;;;;;;;5.03;1.07;;;;;;;30.02;30.40;99712.41;1757408;80;21464;-58
2022/06/19 11:07:58;;;;;;;1.45;1.35;;;;;;;30.25;29.78;99728.55;1759614;80;21945;-58
2022/06/19 11:10:36;;;;;;;2.98;1.05;;;;;;;30.27;30.08;99722.41;1710048;83;21616;-59
2022/06/19 11:13:05;;;;;;;2.52;1.12;;;;;;;30.42;30.67;99728.31;1713152;81;21594;-58
2022/06/19 11:15:41;;;;;;;1.10;1.00;;;;;;;30.52;29.74;99739.70;1703307;83;20982;-58
2022/06/19 11:18:15;;;;;;;1.47;1.35;;;;;;;30.52;29.54;99716.64;1704062;82;21532;-58
2022/06/19 11:21:00;;;;;;;1.35;1.10;;;;;;;30.58;29.75;99721.81;1686558;83;21809;-59
2022/06/19 11:23:51;;;;;;;2.50;0.90;;;;;;;30.73;29.38;99725.81;1687622;83;21585;-58
2022/06/19 11:26:28;;;;;;;2.52;1.27;;;;;;;30.78;29.46;99720.62;1687829;83;21548;-58
2022/06/19 11:29:16;;;;;;;2.12;1.00;;;;;;;30.86;29.28;99711.00;1687841;83;21600;-59
2022/06/19 11:32:09;;;;;;;1.77;0.90;;;;;;;30.85;29.46;99690.31;1687063;83;21469;-58
2022/06/19 11:34:44;;;;;;;2.47;1.07;;;;;;;30.93;30.19;99701.56;1679197;83;21899;-58
2022/06/19 11:37:31;;;;;;;4.55;1.75;;;;;;;31.02;29.23;99699.03;1692314;83;21041;-57
2022/06/19 11:40:07;;;;;;;1.45;1.02;;;;;;;31.05;28.78;99687.26;1699217;82;21460;-58
2022/06/19 11:42:49;;;;;;;1.72;1.17;;;;;;;31.07;29.20;99691.66;1736927;82;21508;-56
2022/06/19 11:45:23;;;;;;;1.67;1.20;;;;;;;31.14;29.73;99692.03;1732142;80;21560;-57
2022/06/19 11:48:01;;;;;;;2.37;1.12;;;;;;;31.24;29.24;99690.31;1732947;82;21766;-57
2022/06/19 11:50:41;;;;;;;1.15;1.00;;;;;;;31.34;29.14;99685.88;1741274;81;21562;-57
2022/06/19 11:53:27;;;;;;;4.72;1.22;;;;;;;31.38;29.13;99684.44;1736221;80;21460;-56
2022/06/19 11:56:32;;;;;;;3.53;1.13;;;;;;;31.38;28.86;99672.21;1734242;80;20976;-57
2022/06/19 11:59:26;;;;;;;2.15;1.10;;;;;;;31.46;29.39;99666.63;1736021;80;21477;-56
2022/06/19 12:01:53;;;;;;;1.07;1.00;;;;;;;31.67;28.89;99674.39;1723979;80;21820;-57
2022/06/19 12:04:37;;;;;;;1.57;0.95;;;;;;;31.78;28.60;99677.36;1733069;80;21534;-57
2022/06/19 12:07:16;;;;;;;1.42;1.10;;;;;;;31.78;28.46;99675.17;1738661;81;21006;-56
2022/06/19 12:10:02;;;;;;;2.15;0.70;;;;;;;31.72;28.51;99670.02;1734994;81;21541;-58
2022/06/19 12:12:33;;;;;;;3.62;1.07;;;;;;;31.73;28.72;99674.41;1734026;81;20984;-57
2022/06/19 12:15:22;;;;;;;2.30;1.25;;;;;;;31.71;28.52;99670.22;1738330;82;21433;-57
2022/06/19 12:17:52;;;;;;;2.37;1.00;;;;;;;31.74;28.85;99671.16;1731590;80;21545;-56
2022/06/19 12:20:24;;;;;;;1.87;1.10;;;;;;;31.75;28.49;99675.56;1682759;81;21459;-56
2022/06/19 12:23:12;;;;;;;3.08;1.10;;;;;;;31.71;28.92;99666.14;1747804;81;21188;-57
2022/06/19 12:26:00;;;;;;;1.30;1.12;;;;;;;31.78;28.74;99659.69;1743099;81;21485;-57
2022/06/19 12:28:42;;;;;;;1.50;0.95;;;;;;;31.86;28.71;99666.83;1742777;81;21879;-56
2022/06/19 12:31:27;;;;;;;1.80;1.20;;;;;;;31.93;28.60;99660.03;1753590;81;21493;-57
2022/06/19 12:33:59;;;;;;;2.72;1.30;;;;;;;32.00;28.41;99665.84;1734226;80;21569;-56
2022/06/19 12:36:32;;;;;;;4.78;1.10;;;;;;;32.01;28.58;99655.79;1737659;81;21162;-57
2022/06/19 12:38:59;;;;;;;5.50;1.10;;;;;;;32.04;28.03;99651.84;1741551;81;21472;-57
2022/06/19 12:41:39;;;;;;;1.32;1.00;;;;;;;31.99;28.04;99655.98;1749005;81;21796;-57
2022/06/19 12:44:37;;;;;;;2.67;1.22;;;;;;;31.85;28.25;99655.63;1721580;81;21616;-57
2022/06/19 12:47:19;;;;;;;2.70;1.10;;;;;;;31.76;28.52;99654.98;1728948;81;21058;-58
2022/06/19 12:50:42;;;;;;;2.50;0.90;;;;;;;31.79;28.30;99658.63;1750812;81;21097;-58
2022/06/19 12:53:55;;;;;;;2.22;0.93;;;;;;;31.76;28.17;99659.56;1749070;80;21434;-57
2022/06/19 12:56:42;;;;;;;2.83;1.27;;;;;;;31.77;28.25;99649.02;1737615;81;22115;-57
2022/06/19 12:59:38;;;;;;;4.67;1.52;;;;;;;31.85;28.10;99654.27;1734624;81;22024;-57
2022/06/19 13:02:28;;;;;;;5.00;1.10;;;;;;;31.93;27.90;99647.30;1750525;80;21594;-58
2022/06/19 13:05:13;;;;;;;2.52;1.30;;;;;;;31.97;27.91;99647.73;1742587;81;21590;-57
2022/06/19 13:08:04;;;;;;;1.95;1.02;;;;;;;32.01;27.81;99644.38;1742324;81;21498;-57
2022/06/19 13:10:57;;;;;;;3.10;1.37;;;;;;;32.11;27.91;99641.83;1752197;81;21416;-58
2022/06/19 13:13:54;;;;;;;1.70;1.10;;;;;;;32.17;27.32;99637.77;1736567;81;21493;-59
2022/06/19 13:17:17;;;;;;;2.65;0.98;;;;;;;32.21;27.45;99651.77;1745325;81;21593;-60
2022/06/19 13:20:08;;;;;;;3.58;1.20;;;;;;;32.22;27.44;99639.86;1748690;80;21143;-59
2022/06/19 13:22:41;;;;;;;3.02;1.15;;;;;;;32.18;27.92;99633.98;1742578;80;21440;-62
2022/06/19 13:25:25;;;;;;;1.95;1.15;;;;;;;32.27;27.56;99634.64;1743306;80;21930;-62
2022/06/19 13:28:14;;;;;;;4.47;1.25;;;;;;;32.24;27.40;99626.89;1749631;80;21558;-62
2022/06/19 13:30:55;;;;;;;2.87;1.27;;;;;;;32.23;26.90;99636.61;1731621;80;21466;-61
2022/06/19 13:33:36;;;;;;;1.02;0.82;;;;;;;32.18;26.79;99631.80;1752361;80;21439;-61
2022/06/19 13:36:33;;;;;;;2.90;1.40;;;;;;;32.23;26.91;99636.61;1751223;80;21558;-61
2022/06/19 13:39:23;;;;;;;2.60;1.10;;;;;;;32.28;27.03;99628.67;1743875;80;21817;-62
2022/06/19 13:42:32;;;;;;;2.22;1.10;;;;;;;32.38;27.66;99624.50;1744146;80;21018;-61
2022/06/19 13:45:07;;;;;;;2.90;1.10;;;;;;;32.51;27.36;99622.31;1753780;80;21030;-61
2022/06/19 13:47:52;;;;;;;2.45;1.35;;;;;;;32.54;27.42;99613.72;1691159;83;21630;-61
2022/06/19 13:50:27;;;;;;;5.53;1.60;;;;;;;32.55;27.17;99608.59;1740973;80;21500;-61
2022/06/19 13:53:33;;;;;;;4.35;1.45;;;;;;;32.59;27.71;99608.52;1674191;83;21750;-61
2022/06/19 13:56:23;;;;;;;5.17;1.40;;;;;;;32.64;27.44;99599.71;1745616;80;21523;-61
2022/06/19 13:59:31;;;;;;;1.72;1.00;;;;;;;32.67;27.05;99597.11;1749893;80;21529;-61
2022/06/19 14:02:05;;;;;;;1.27;1.00;;;;;;;32.72;27.31;99595.43;1744012;80;21752;-60
2022/06/19 14:05:14;;;;;;;1.87;1.15;;;;;;;32.77;26.97;99599.69;1751068;80;21546;-60
2022/06/19 14:08:37;;;;;;;2.60;1.40;;;;;;;32.77;27.45;99599.69;1705223;80;21899;-62
2022/06/19 14:11:17;;;;;;;1.98;1.52;;;;;;;32.76;27.05;99595.31;1746003;80;21566;-61